Dunaujvaros, Hungary
Current Conditions -  °F | °C
As of 8:30 AM on Wednesday 22 Oct 2014 (Local Time) from LHBP Reporting Station
Light Rain Light Rain  
Wind Chill: 42°   Ceiling: 3700
Heat Index: 48°   Visibility: 4mi
Dew Point: 46°   Wind: 17mph
Humidity: 93%   Direction: 310°NW
Pressure: 29.59"   Gusts: NA
Location:  46.98°N, 18.93°E
Report Text: LHBP 220630Z 31015KT 6000 -RA FEW006 SCT015 BKN037 09/08 Q1002 NOSIG
Loading
Personal Weather Stations






























Interactive Weather Map
Tropical Storm Tracking
New forecast layout! Learn more

10-Day Weather Forecast

Advertisements
Track Severe Weather on mobile